createdAt,value
2022-11-13T00:00:43.641Z,1005.84
2022-11-13T00:01:43.644Z,1005.83
2022-11-13T00:02:43.649Z,1005.82
2022-11-13T00:03:43.589Z,1005.77
2022-11-13T00:04:43.532Z,1005.77
2022-11-13T00:05:43.505Z,1005.77
2022-11-13T00:06:43.530Z,1005.74
2022-11-13T00:07:43.455Z,1005.74
2022-11-13T00:08:43.526Z,1005.70
2022-11-13T00:09:43.421Z,1005.69
2022-11-13T00:10:43.372Z,1005.71
2022-11-13T00:11:43.353Z,1005.71
2022-11-13T00:12:43.346Z,1005.70
2022-11-13T00:13:43.294Z,1005.70
2022-11-13T00:14:43.271Z,1005.66
2022-11-13T00:15:43.263Z,1005.67
2022-11-13T00:16:43.216Z,1005.65
2022-11-13T00:17:43.222Z,1005.65
2022-11-13T00:18:43.170Z,1005.68
2022-11-13T00:19:43.143Z,1005.64
2022-11-13T00:20:43.145Z,1005.61
2022-11-13T00:21:43.112Z,1005.62
2022-11-13T00:22:43.060Z,1005.56
2022-11-13T00:23:43.061Z,1005.57
2022-11-13T00:24:43.117Z,1005.55
2022-11-13T00:25:42.976Z,1005.52
2022-11-13T00:26:42.982Z,1005.51
2022-11-13T00:27:42.965Z,1005.50
2022-11-13T00:28:42.908Z,1005.52
2022-11-13T00:29:42.894Z,1005.50
2022-11-13T00:30:42.850Z,1005.49
2022-11-13T00:31:42.849Z,1005.48
2022-11-13T00:32:42.819Z,1005.53
2022-11-13T00:34:09.026Z,1005.51
2022-11-13T00:34:49.994Z,1005.51
2022-11-13T00:35:42.728Z,1005.51
2022-11-13T00:36:42.698Z,1005.49
2022-11-13T00:37:42.674Z,1005.49
2022-11-13T00:38:42.641Z,1005.49
2022-11-13T00:39:42.651Z,1005.50
2022-11-13T00:40:42.704Z,1005.46
2022-11-13T00:41:42.563Z,1005.45
2022-11-13T00:42:42.548Z,1005.45
2022-11-13T00:43:42.512Z,1005.48
2022-11-13T00:44:42.484Z,1005.46
2022-11-13T00:45:42.457Z,1005.44
2022-11-13T00:46:42.444Z,1005.40
2022-11-13T00:47:42.413Z,1005.41
2022-11-13T00:48:42.377Z,1005.44
2022-11-13T00:49:42.351Z,1005.43
2022-11-13T00:50:42.326Z,1005.39
2022-11-13T00:51:42.321Z,1005.43
2022-11-13T00:52:42.272Z,1005.42
2022-11-13T00:53:42.245Z,1005.36
2022-11-13T00:54:42.251Z,1005.29
2022-11-13T00:55:42.192Z,1005.33
2022-11-13T00:56:42.258Z,1005.32
2022-11-13T00:57:42.143Z,1005.32
2022-11-13T00:58:42.112Z,1005.31
2022-11-13T00:59:42.109Z,1005.33
2022-11-13T01:00:42.071Z,1005.35
2022-11-13T01:01:42.115Z,1005.34
2022-11-13T01:02:42.030Z,1005.33
2022-11-13T01:03:41.986Z,1005.37
2022-11-13T01:04:41.968Z,1005.33
2022-11-13T01:05:41.958Z,1005.31
2022-11-13T01:06:41.923Z,1005.38
2022-11-13T01:07:41.881Z,1005.36
2022-11-13T01:08:41.855Z,1005.36
2022-11-13T01:09:41.840Z,1005.30
2022-11-13T01:10:42.329Z,1005.34
2022-11-13T01:11:41.787Z,1005.32
2022-11-13T01:12:41.842Z,1005.33
2022-11-13T01:13:41.742Z,1005.34
2022-11-13T01:14:41.698Z,1005.34
2022-11-13T01:15:41.670Z,1005.32
2022-11-13T01:16:41.649Z,1005.35
2022-11-13T01:17:41.618Z,1005.32
2022-11-13T01:18:41.602Z,1005.31
2022-11-13T01:19:41.577Z,1005.30
2022-11-13T01:20:41.544Z,1005.30
2022-11-13T01:21:41.536Z,1005.29
2022-11-13T01:22:41.491Z,1005.32
2022-11-13T01:23:41.469Z,1005.29
2022-11-13T01:24:41.454Z,1005.29
2022-11-13T01:25:41.420Z,1005.27
2022-11-13T01:26:41.382Z,1005.32
2022-11-13T01:27:41.363Z,1005.35
2022-11-13T01:28:41.462Z,1005.33
2022-11-13T01:29:41.311Z,1005.35
2022-11-13T01:30:41.280Z,1005.34
2022-11-13T01:31:41.293Z,1005.35
2022-11-13T01:32:41.225Z,1005.36
2022-11-13T01:33:41.210Z,1005.34
2022-11-13T01:34:41.197Z,1005.29
2022-11-13T01:35:41.179Z,1005.37
2022-11-13T01:36:41.139Z,1005.27
2022-11-13T01:37:41.126Z,1005.27
2022-11-13T01:38:41.099Z,1005.31
2022-11-13T01:39:41.054Z,1005.30
2022-11-13T01:40:41.022Z,1005.27
2022-11-13T01:41:40.999Z,1005.28
2022-11-13T01:42:40.973Z,1005.25
2022-11-13T01:43:40.953Z,1005.25
2022-11-13T01:44:41.010Z,1005.24
2022-11-13T01:45:40.900Z,1005.28
2022-11-13T01:46:40.873Z,1005.32
2022-11-13T01:47:40.843Z,1005.26
2022-11-13T01:48:40.826Z,1005.25
2022-11-13T01:49:40.787Z,1005.24
2022-11-13T01:50:40.767Z,1005.21
2022-11-13T01:51:40.740Z,1005.21
2022-11-13T01:52:40.708Z,1005.24
2022-11-13T01:53:40.685Z,1005.24
2022-11-13T01:54:40.690Z,1005.26
2022-11-13T01:55:40.627Z,1005.24
2022-11-13T01:56:40.613Z,1005.23
2022-11-13T01:57:40.583Z,1005.22
2022-11-13T01:58:40.551Z,1005.20
2022-11-13T01:59:40.546Z,1005.20
2022-11-13T02:00:40.593Z,1005.18
2022-11-13T02:01:40.517Z,1005.21
2022-11-13T02:02:40.452Z,1005.17
2022-11-13T02:03:40.431Z,1005.12
2022-11-13T02:04:40.401Z,1005.11
2022-11-13T02:05:40.393Z,1005.11
2022-11-13T02:06:40.374Z,1005.13
2022-11-13T02:07:40.353Z,1005.14
2022-11-13T02:08:40.324Z,1005.19
2022-11-13T02:09:40.265Z,1005.19
2022-11-13T02:10:40.260Z,1005.14
2022-11-13T02:11:40.233Z,1005.15
2022-11-13T02:12:40.203Z,1005.13
2022-11-13T02:13:40.180Z,1005.13
2022-11-13T02:14:40.137Z,1005.14
2022-11-13T02:15:40.119Z,1005.17
2022-11-13T02:16:40.176Z,1005.10
2022-11-13T02:17:40.067Z,1005.10
2022-11-13T02:18:40.043Z,1005.08
2022-11-13T02:19:40.012Z,1005.09
2022-11-13T02:20:39.989Z,1005.08
2022-11-13T02:21:39.965Z,1005.09
2022-11-13T02:22:39.945Z,1005.12
2022-11-13T02:23:39.920Z,1005.07
2022-11-13T02:24:44.634Z,1005.13
2022-11-13T02:25:39.854Z,1005.07
2022-11-13T02:26:39.829Z,1005.07
2022-11-13T02:27:39.805Z,1005.06
2022-11-13T02:28:39.828Z,1005.03
2022-11-13T02:29:39.749Z,1005.05
2022-11-13T02:30:39.767Z,1005.04
2022-11-13T02:31:39.703Z,1005.01
2022-11-13T02:32:39.769Z,1004.97
2022-11-13T02:33:39.653Z,1004.97
2022-11-13T02:34:39.629Z,1004.96
2022-11-13T02:35:39.601Z,1004.95
2022-11-13T02:36:39.563Z,1004.92
2022-11-13T02:37:39.550Z,1004.94
2022-11-13T02:38:39.535Z,1004.96
2022-11-13T02:39:39.489Z,1004.94
2022-11-13T02:40:39.476Z,1004.91
2022-11-13T02:41:39.444Z,1004.89
2022-11-13T02:42:39.417Z,1004.91
2022-11-13T02:43:39.418Z,1004.89
2022-11-13T02:44:39.371Z,1004.87
2022-11-13T02:45:39.333Z,1004.87
2022-11-13T02:46:39.318Z,1004.88
2022-11-13T02:47:39.287Z,1004.86
2022-11-13T02:48:39.365Z,1004.87
2022-11-13T02:49:39.252Z,1004.84
2022-11-13T02:50:39.206Z,1004.87
2022-11-13T02:51:39.189Z,1004.86
2022-11-13T02:52:39.213Z,1004.84
2022-11-13T02:53:39.128Z,1004.82
2022-11-13T02:54:39.103Z,1004.81
2022-11-13T02:55:39.077Z,1004.78
2022-11-13T02:56:39.078Z,1004.78
2022-11-13T02:57:39.029Z,1004.82
2022-11-13T02:58:39.006Z,1004.82
2022-11-13T02:59:38.992Z,1004.81
2022-11-13T03:00:38.954Z,1004.81
2022-11-13T03:01:38.977Z,1004.83
2022-11-13T03:02:38.914Z,1004.78
2022-11-13T03:03:57.193Z,1004.75
2022-11-13T03:05:10.398Z,1004.81
2022-11-13T03:05:38.833Z,1004.74
2022-11-13T03:06:38.864Z,1004.77
2022-11-13T03:07:38.771Z,1004.76
2022-11-13T03:08:39.013Z,1004.73
2022-11-13T03:09:38.713Z,1004.71
2022-11-13T03:10:38.687Z,1004.72
2022-11-13T03:11:38.668Z,1004.73
2022-11-13T03:12:38.641Z,1004.73
2022-11-13T03:13:38.611Z,1004.71
2022-11-13T03:14:38.584Z,1004.67
2022-11-13T03:15:38.557Z,1004.73
2022-11-13T03:16:38.534Z,1004.71
2022-11-13T03:17:38.518Z,1004.68
2022-11-13T03:18:38.488Z,1004.71
2022-11-13T03:19:38.452Z,1004.72
2022-11-13T03:20:38.525Z,1004.71
2022-11-13T03:21:38.399Z,1004.63
2022-11-13T03:22:38.378Z,1004.68
2022-11-13T03:23:38.358Z,1004.62
2022-11-13T03:24:38.322Z,1004.63
2022-11-13T03:25:38.298Z,1004.63
2022-11-13T03:26:38.295Z,1004.61
2022-11-13T03:27:38.263Z,1004.61
2022-11-13T03:28:38.227Z,1004.61
2022-11-13T03:29:38.199Z,1004.59
2022-11-13T03:30:38.166Z,1004.57
2022-11-13T03:31:38.152Z,1004.60
2022-11-13T03:32:38.121Z,1004.60
2022-11-13T03:33:38.100Z,1004.59
2022-11-13T03:34:38.079Z,1004.58
2022-11-13T03:35:44.245Z,1004.59
2022-11-13T03:36:38.111Z,1004.59
2022-11-13T03:37:37.993Z,1004.55
2022-11-13T03:38:37.964Z,1004.57
2022-11-13T03:39:37.940Z,1004.62
2022-11-13T03:40:37.926Z,1004.59
2022-11-13T03:41:37.886Z,1004.60
2022-11-13T03:42:37.858Z,1004.60
2022-11-13T03:43:37.836Z,1004.58
2022-11-13T03:44:37.827Z,1004.56
2022-11-13T03:45:37.781Z,1004.61
2022-11-13T03:46:37.757Z,1004.61
2022-11-13T03:47:37.736Z,1004.61
2022-11-13T03:48:37.705Z,1004.60
2022-11-13T03:49:37.676Z,1004.60
2022-11-13T03:50:42.789Z,1004.61
2022-11-13T03:51:37.625Z,1004.62
2022-11-13T03:52:37.694Z,1004.63
2022-11-13T03:53:37.577Z,1004.61
2022-11-13T03:54:37.542Z,1004.63
2022-11-13T03:55:37.530Z,1004.62
2022-11-13T03:56:37.496Z,1004.61
2022-11-13T03:57:37.471Z,1004.62
2022-11-13T03:58:40.285Z,1004.62
2022-11-13T03:59:37.417Z,1004.57
2022-11-13T04:00:37.408Z,1004.61
2022-11-13T04:01:37.415Z,1004.62
2022-11-13T04:02:37.341Z,1004.61
2022-11-13T04:03:37.322Z,1004.60
2022-11-13T04:04:37.291Z,1004.58
2022-11-13T04:05:37.260Z,1004.56
2022-11-13T04:06:37.307Z,1004.60
2022-11-13T04:07:37.240Z,1004.60
2022-11-13T04:08:37.278Z,1004.59
2022-11-13T04:09:37.171Z,1004.61
2022-11-13T04:10:37.132Z,1004.60
2022-11-13T04:11:37.115Z,1004.58
2022-11-13T04:12:37.085Z,1004.61
2022-11-13T04:13:37.068Z,1004.61
2022-11-13T04:14:37.027Z,1004.60
2022-11-13T04:15:37.018Z,1004.61
2022-11-13T04:16:36.983Z,1004.56
2022-11-13T04:17:36.960Z,1004.51
2022-11-13T04:18:36.929Z,1004.48
2022-11-13T04:19:36.916Z,1004.51
2022-11-13T04:20:36.876Z,1004.47
2022-11-13T04:21:36.874Z,1004.48
2022-11-13T04:22:36.827Z,1004.47
2022-11-13T04:23:36.796Z,1004.46
2022-11-13T04:24:36.860Z,1004.45
2022-11-13T04:25:36.785Z,1004.45
2022-11-13T04:26:36.732Z,1004.43
2022-11-13T04:27:36.729Z,1004.47
2022-11-13T04:28:36.673Z,1004.44
2022-11-13T04:29:36.641Z,1004.44
2022-11-13T04:30:36.613Z,1004.43
2022-11-13T04:31:36.606Z,1004.40
2022-11-13T04:32:36.582Z,1004.38
2022-11-13T04:33:36.542Z,1004.36
2022-11-13T04:34:36.519Z,1004.32
2022-11-13T04:35:36.504Z,1004.32
2022-11-13T04:36:36.463Z,1004.26
2022-11-13T04:37:36.438Z,1004.30
2022-11-13T04:38:36.427Z,1004.28
2022-11-13T04:39:36.382Z,1004.21
2022-11-13T04:40:36.451Z,1004.26
2022-11-13T04:41:36.328Z,1004.23
2022-11-13T04:42:36.318Z,1004.18
2022-11-13T04:43:36.289Z,1004.23
2022-11-13T04:44:36.257Z,1004.22
2022-11-13T04:45:36.231Z,1004.23
2022-11-13T04:46:36.202Z,1004.20
2022-11-13T04:47:36.172Z,1004.20
2022-11-13T04:48:36.160Z,1004.18
2022-11-13T04:49:36.123Z,1004.21
2022-11-13T04:50:36.103Z,1004.21
2022-11-13T04:51:36.086Z,1004.17
2022-11-13T04:52:36.044Z,1004.22
2022-11-13T04:53:36.021Z,1004.23
2022-11-13T04:54:35.994Z,1004.22
2022-11-13T04:55:35.969Z,1004.15
2022-11-13T04:56:36.038Z,1004.20
2022-11-13T04:57:35.913Z,1004.16
2022-11-13T04:58:35.890Z,1004.19
2022-11-13T04:59:35.864Z,1004.12
2022-11-13T05:00:35.839Z,1004.11
2022-11-13T05:01:35.924Z,1004.13
2022-11-13T05:02:35.785Z,1004.07
2022-11-13T05:03:35.760Z,1004.04
2022-11-13T05:04:35.756Z,1004.10
2022-11-13T05:05:35.709Z,1004.04
2022-11-13T05:06:35.689Z,1004.09
2022-11-13T05:07:35.678Z,1004.05
2022-11-13T05:08:35.632Z,1004.10
2022-11-13T05:09:35.604Z,1004.09
2022-11-13T05:10:35.591Z,1004.10
2022-11-13T05:11:35.556Z,1004.04
2022-11-13T05:12:35.626Z,1004.05
2022-11-13T05:13:35.512Z,1004.04
2022-11-13T05:14:35.477Z,1004.03
2022-11-13T05:15:35.447Z,1004.02
2022-11-13T05:16:35.423Z,1003.99
2022-11-13T05:17:35.393Z,1004.01
2022-11-13T05:18:35.399Z,1003.99
2022-11-13T05:19:35.347Z,1003.95
2022-11-13T05:20:35.315Z,1003.95
2022-11-13T05:21:35.297Z,1003.92
2022-11-13T05:22:35.277Z,1003.92
2022-11-13T05:23:35.250Z,1003.87
2022-11-13T05:24:35.226Z,1003.82
2022-11-13T05:25:35.190Z,1003.80
2022-11-13T05:26:35.188Z,1003.79
2022-11-13T05:27:35.136Z,1003.78
2022-11-13T05:28:35.211Z,1003.75
2022-11-13T05:29:35.094Z,1003.76
2022-11-13T05:30:35.063Z,1003.76
2022-11-13T05:31:35.047Z,1003.77
2022-11-13T05:32:35.016Z,1003.72
2022-11-13T05:33:34.987Z,1003.71
2022-11-13T05:34:34.973Z,1003.69
2022-11-13T05:35:34.978Z,1003.70
2022-11-13T05:36:34.906Z,1003.69
2022-11-13T05:37:34.872Z,1003.72
2022-11-13T05:38:34.857Z,1003.69
2022-11-13T05:39:34.831Z,1003.73
2022-11-13T05:40:34.827Z,1003.76
2022-11-13T05:41:34.782Z,1003.77
2022-11-13T05:42:34.761Z,1003.77
2022-11-13T05:43:34.733Z,1003.72
2022-11-13T05:44:34.810Z,1003.76
2022-11-13T05:45:34.707Z,1003.72
2022-11-13T05:46:34.642Z,1003.72
2022-11-13T05:47:34.624Z,1003.70
2022-11-13T05:48:34.600Z,1003.68
2022-11-13T05:49:34.564Z,1003.68
2022-11-13T05:50:34.548Z,1003.66
2022-11-13T05:51:34.515Z,1003.62
2022-11-13T05:52:34.500Z,1003.63
2022-11-13T05:53:34.467Z,1003.66
2022-11-13T05:54:34.435Z,1003.63
2022-11-13T05:55:34.420Z,1003.60
2022-11-13T05:56:34.388Z,1003.60
2022-11-13T05:57:34.380Z,1003.58
2022-11-13T05:58:34.343Z,1003.57
2022-11-13T05:59:34.312Z,1003.58
2022-11-13T06:00:34.378Z,1003.58
2022-11-13T06:01:34.295Z,1003.57
2022-11-13T06:02:34.229Z,1003.57
2022-11-13T06:03:34.205Z,1003.52
2022-11-13T06:04:34.182Z,1003.49
2022-11-13T06:05:34.148Z,1003.47
2022-11-13T06:06:34.125Z,1003.47
2022-11-13T06:07:34.106Z,1003.42
2022-11-13T06:08:34.073Z,1003.41
2022-11-13T06:09:34.052Z,1003.39
2022-11-13T06:10:34.018Z,1003.38
2022-11-13T06:11:34.004Z,1003.39
2022-11-13T06:12:33.964Z,1003.36
2022-11-13T06:13:33.938Z,1003.35
2022-11-13T06:14:33.917Z,1003.33
2022-11-13T06:15:33.890Z,1003.32
2022-11-13T06:16:33.964Z,1003.29
2022-11-13T06:17:33.836Z,1003.33
2022-11-13T06:18:34.112Z,1003.29
2022-11-13T06:19:33.783Z,1003.33
2022-11-13T06:20:33.763Z,1003.27
2022-11-13T06:21:33.733Z,1003.25
2022-11-13T06:22:33.702Z,1003.27
2022-11-13T06:23:33.686Z,1003.30
2022-11-13T06:24:33.648Z,1003.28
2022-11-13T06:25:33.625Z,1003.26
2022-11-13T06:26:33.604Z,1003.29
2022-11-13T06:27:33.577Z,1003.27
2022-11-13T06:28:33.554Z,1003.28
2022-11-13T06:29:33.521Z,1003.29
2022-11-13T06:30:33.496Z,1003.24
2022-11-13T06:31:33.469Z,1003.24
2022-11-13T06:32:33.541Z,1003.21
2022-11-13T06:33:33.411Z,1003.20
2022-11-13T06:34:33.462Z,1003.17
2022-11-13T06:35:33.361Z,1003.12
2022-11-13T06:36:33.361Z,1003.15
2022-11-13T06:37:34.866Z,1003.17
2022-11-13T06:38:33.369Z,1003.12
2022-11-13T06:39:33.265Z,1003.09
2022-11-13T06:40:33.233Z,1003.08
2022-11-13T06:41:33.208Z,1003.04
2022-11-13T06:42:33.180Z,1003.08
2022-11-13T06:43:33.155Z,1003.05
2022-11-13T06:44:33.124Z,1003.09
2022-11-13T06:45:33.099Z,1003.11
2022-11-13T06:46:33.072Z,1003.10
2022-11-13T06:47:33.044Z,1003.13
2022-11-13T06:48:33.122Z,1003.12
2022-11-13T06:49:32.989Z,1003.15
2022-11-13T06:50:32.972Z,1003.11
2022-11-13T06:51:32.944Z,1003.14
2022-11-13T06:52:32.928Z,1003.15
2022-11-13T06:53:32.896Z,1003.18
2022-11-13T06:54:32.868Z,1003.17
2022-11-13T06:55:32.859Z,1003.16
2022-11-13T06:56:32.810Z,1003.20
2022-11-13T06:57:32.786Z,1003.19
2022-11-13T06:58:32.763Z,1003.16
2022-11-13T06:59:32.731Z,1003.09
2022-11-13T07:00:36.641Z,1003.14
2022-11-13T07:01:32.736Z,1003.11
2022-11-13T07:02:32.658Z,1003.11
2022-11-13T07:03:32.621Z,1003.10
2022-11-13T07:04:32.698Z,1003.09
2022-11-13T07:05:32.574Z,1003.11
2022-11-13T07:06:37.547Z,1003.14
2022-11-13T07:07:32.526Z,1003.09
2022-11-13T07:08:32.491Z,1003.11
2022-11-13T07:09:32.463Z,1003.12
2022-11-13T07:10:32.436Z,1003.11
2022-11-13T07:11:32.461Z,1003.09
2022-11-13T07:12:32.390Z,1003.08
2022-11-13T07:13:32.358Z,1003.06
2022-11-13T07:14:32.350Z,1003.05
2022-11-13T07:15:32.306Z,1003.06
2022-11-13T07:16:56.373Z,1003.01
2022-11-13T07:17:32.257Z,1003.03
2022-11-13T07:18:32.228Z,1003.01
2022-11-13T07:19:32.212Z,1003.04
2022-11-13T07:20:32.272Z,1003.01
2022-11-13T07:21:32.153Z,1002.98
2022-11-13T07:22:32.128Z,1003.00
2022-11-13T07:23:32.113Z,1002.95
2022-11-13T07:24:32.073Z,1002.97
2022-11-13T07:25:32.042Z,1002.96
2022-11-13T07:26:32.024Z,1002.92
2022-11-13T07:27:31.995Z,1002.90
2022-11-13T07:28:32.021Z,1002.88
2022-11-13T07:29:31.943Z,1002.95
2022-11-13T07:30:31.921Z,1002.93
2022-11-13T07:31:31.901Z,1002.94
2022-11-13T07:32:31.868Z,1002.95
2022-11-13T07:33:31.836Z,1002.94
2022-11-13T07:34:31.807Z,1002.99
2022-11-13T07:35:31.791Z,1002.98
2022-11-13T07:36:31.854Z,1002.99
2022-11-13T07:37:31.730Z,1003.00
2022-11-13T07:38:32.022Z,1002.97
2022-11-13T07:39:31.695Z,1002.97
2022-11-13T07:40:31.655Z,1002.98
2022-11-13T07:41:31.628Z,1002.96
2022-11-13T07:42:31.607Z,1002.94
2022-11-13T07:43:31.583Z,1002.98
2022-11-13T07:44:53.376Z,1002.94
2022-11-13T07:45:31.531Z,1002.97
2022-11-13T07:46:31.496Z,1002.90
2022-11-13T07:47:31.470Z,1002.94
2022-11-13T07:48:31.949Z,1002.92
2022-11-13T07:49:31.419Z,1002.94
2022-11-13T07:50:31.403Z,1002.97
2022-11-13T07:51:31.363Z,1002.94
2022-11-13T07:52:31.432Z,1002.92
2022-11-13T07:53:31.312Z,1002.97
2022-11-13T07:54:31.286Z,1002.90
2022-11-13T07:55:31.271Z,1002.93
2022-11-13T07:56:31.245Z,1002.95
2022-11-13T07:57:31.214Z,1002.92
2022-11-13T07:58:31.683Z,1002.87
2022-11-13T07:59:31.174Z,1002.92
2022-11-13T08:00:31.137Z,1002.91
2022-11-13T08:01:31.162Z,1002.87
2022-11-13T08:02:31.088Z,1002.84
2022-11-13T08:03:31.065Z,1002.90
2022-11-13T08:04:31.034Z,1002.89
2022-11-13T08:05:31.005Z,1002.88
2022-11-13T08:06:30.991Z,1002.88
2022-11-13T08:07:30.960Z,1002.90
2022-11-13T08:08:31.345Z,1002.89
2022-11-13T08:09:30.906Z,1002.91
2022-11-13T08:10:30.994Z,1002.91
2022-11-13T08:11:30.867Z,1002.86
2022-11-13T08:12:30.833Z,1002.89
2022-11-13T08:13:30.805Z,1002.87
2022-11-13T08:14:30.779Z,1002.87
2022-11-13T08:15:30.880Z,1002.82
2022-11-13T08:16:30.730Z,1002.85
2022-11-13T08:17:30.730Z,1002.89
2022-11-13T08:18:31.230Z,1002.86
2022-11-13T08:19:30.669Z,1002.84
2022-11-13T08:20:30.769Z,1002.83
2022-11-13T08:21:30.626Z,1002.83
2022-11-13T08:22:30.607Z,1002.84
2022-11-13T08:23:30.571Z,1002.84
2022-11-13T08:24:30.711Z,1002.86
2022-11-13T08:25:30.495Z,1002.90
2022-11-13T08:26:30.474Z,1002.83
2022-11-13T08:27:30.451Z,1002.86
2022-11-13T08:28:30.795Z,1002.85
2022-11-13T08:29:30.399Z,1002.83
2022-11-13T08:30:30.371Z,1002.85
2022-11-13T08:31:30.378Z,1002.84
2022-11-13T08:32:30.344Z,1002.83
2022-11-13T08:33:30.292Z,1002.76
2022-11-13T08:34:30.268Z,1002.80
2022-11-13T08:35:30.267Z,1002.79
2022-11-13T08:36:30.214Z,1002.78
2022-11-13T08:37:30.200Z,1002.81
2022-11-13T08:38:30.561Z,1002.81
2022-11-13T08:39:30.142Z,1002.77
2022-11-13T08:40:30.208Z,1002.77
2022-11-13T08:41:30.091Z,1002.75
2022-11-13T08:42:30.068Z,1002.79
2022-11-13T08:43:30.050Z,1002.79
2022-11-13T08:44:30.016Z,1002.79
2022-11-13T08:45:29.995Z,1002.82
2022-11-13T08:46:29.965Z,1002.78
2022-11-13T08:47:29.949Z,1002.82
2022-11-13T08:48:30.260Z,1002.80
2022-11-13T08:49:29.890Z,1002.81
2022-11-13T08:50:29.868Z,1002.84
2022-11-13T08:51:29.839Z,1002.83
2022-11-13T08:52:29.837Z,1002.81
2022-11-13T08:53:29.810Z,1002.81
2022-11-13T08:54:29.765Z,1002.80
2022-11-13T08:55:29.746Z,1002.79
2022-11-13T08:56:29.805Z,1002.74
2022-11-13T08:57:29.697Z,1002.78
2022-11-13T08:58:29.860Z,1002.75
2022-11-13T08:59:30.100Z,1002.75
2022-11-13T09:02:23.034Z,1002.72
2022-11-13T09:03:23.016Z,1002.72
2022-11-13T09:04:22.961Z,1002.69
2022-11-13T09:05:22.920Z,1002.72
2022-11-13T09:06:22.885Z,1002.70
2022-11-13T09:07:27.128Z,1002.67
2022-11-13T09:08:22.848Z,1002.63
2022-11-13T09:09:22.833Z,1002.61
2022-11-13T09:10:22.795Z,1002.56
2022-11-13T09:11:22.969Z,1002.56
2022-11-13T09:12:22.835Z,1002.56
2022-11-13T09:13:22.719Z,1002.51
2022-11-13T09:14:22.724Z,1002.53
2022-11-13T09:15:24.548Z,1002.50
2022-11-13T09:16:22.676Z,1002.48
2022-11-13T09:17:22.622Z,1002.50
2022-11-13T09:18:22.612Z,1002.45
2022-11-13T09:19:22.579Z,1002.44
2022-11-13T09:20:23.233Z,1002.45
2022-11-13T09:21:22.516Z,1002.42
2022-11-13T09:22:22.493Z,1002.39
2022-11-13T09:23:22.460Z,1002.36
2022-11-13T09:24:22.448Z,1002.37
2022-11-13T09:25:22.418Z,1002.31
2022-11-13T09:26:22.384Z,1002.29
2022-11-13T09:27:22.367Z,1002.31
2022-11-13T09:28:22.436Z,1002.26
2022-11-13T09:29:22.320Z,1002.29
2022-11-13T09:30:22.379Z,1002.26
2022-11-13T09:31:22.262Z,1002.24
2022-11-13T09:32:22.256Z,1002.26
2022-11-13T09:33:22.221Z,1002.30
2022-11-13T09:34:22.182Z,1002.34
2022-11-13T09:35:22.160Z,1002.37
2022-11-13T09:36:22.140Z,1002.37
2022-11-13T09:37:22.354Z,1002.31
2022-11-13T09:38:22.126Z,1002.33
2022-11-13T09:39:22.091Z,1002.30
2022-11-13T09:40:22.099Z,1002.30
2022-11-13T09:41:22.019Z,1002.27
2022-11-13T09:42:21.998Z,1002.27
2022-11-13T09:43:22.027Z,1002.31
2022-11-13T09:44:22.057Z,1002.29
2022-11-13T09:45:21.950Z,1002.28
2022-11-13T09:46:21.945Z,1002.27
2022-11-13T09:47:21.884Z,1002.32
2022-11-13T09:48:21.841Z,1002.34
2022-11-13T09:49:21.821Z,1002.32
2022-11-13T09:50:21.879Z,1002.34
2022-11-13T09:51:22.542Z,1002.29
2022-11-13T09:52:21.752Z,1002.30
2022-11-13T09:53:21.730Z,1002.29
2022-11-13T09:54:21.711Z,1002.23
2022-11-13T09:55:21.678Z,1002.26
2022-11-13T09:56:21.660Z,1002.22
2022-11-13T09:57:25.836Z,1002.19
2022-11-13T09:58:21.608Z,1002.21
2022-11-13T09:59:21.611Z,1002.19
2022-11-13T10:00:21.797Z,1002.15
2022-11-13T10:01:21.653Z,1002.11
2022-11-13T10:02:21.533Z,1002.10
2022-11-13T10:03:39.416Z,1002.11
2022-11-13T10:04:21.461Z,1002.16
2022-11-13T10:05:21.439Z,1002.15
2022-11-13T10:06:21.437Z,1002.16
2022-11-13T10:07:21.420Z,1002.06
2022-11-13T10:08:21.374Z,1002.08
2022-11-13T10:09:21.356Z,1002.07
2022-11-13T10:10:21.429Z,1002.08
2022-11-13T10:11:21.317Z,1002.05
2022-11-13T10:12:21.284Z,1002.04
2022-11-13T10:13:21.274Z,1002.01
2022-11-13T10:14:21.252Z,1002.04
2022-11-13T10:15:21.230Z,1002.04
2022-11-13T10:16:21.311Z,1002.04
2022-11-13T10:17:21.183Z,1002.04
2022-11-13T10:18:21.151Z,1002.03
2022-11-13T10:19:21.128Z,1002.04
2022-11-13T10:20:21.112Z,1002.04
2022-11-13T10:21:21.087Z,1002.03
2022-11-13T10:22:36.315Z,1001.94
2022-11-13T10:23:21.049Z,1001.91
2022-11-13T10:24:21.034Z,1001.83
2022-11-13T10:25:21.011Z,1001.80
2022-11-13T10:26:21.009Z,1001.74
2022-11-13T10:27:20.978Z,1001.76
2022-11-13T10:28:48.723Z,1001.71
2022-11-13T10:29:20.919Z,1001.67
2022-11-13T10:30:21.023Z,1001.66
2022-11-13T10:31:20.882Z,1001.64
2022-11-13T10:32:20.956Z,1001.61
2022-11-13T10:33:20.844Z,1001.59
2022-11-13T10:34:20.830Z,1001.56
2022-11-13T10:35:20.891Z,1001.53
2022-11-13T10:36:20.852Z,1001.51
2022-11-13T10:37:20.789Z,1001.52
2022-11-13T10:38:20.788Z,1001.49
2022-11-13T10:39:20.748Z,1001.48
2022-11-13T10:40:20.725Z,1001.48
2022-11-13T10:41:20.711Z,1001.43
2022-11-13T10:42:20.696Z,1001.41
2022-11-13T10:43:20.706Z,1001.37
2022-11-13T10:44:20.691Z,1001.30
2022-11-13T10:45:20.647Z,1001.36
2022-11-13T10:46:20.623Z,1001.31
2022-11-13T10:47:42.451Z,1001.25
2022-11-13T10:48:20.650Z,1001.27
2022-11-13T10:49:20.535Z,1001.25
2022-11-13T10:50:20.525Z,1001.18
2022-11-13T10:51:20.497Z,1001.22
2022-11-13T10:52:20.475Z,1001.19
2022-11-13T10:53:20.468Z,1001.18
2022-11-13T10:54:20.465Z,1001.20
2022-11-13T10:55:20.447Z,1001.23
2022-11-13T10:56:20.398Z,1001.15
2022-11-13T10:57:20.374Z,1001.17
2022-11-13T10:58:20.369Z,1001.24
2022-11-13T10:59:20.340Z,1001.22
2022-11-13T11:00:20.327Z,1001.18
2022-11-13T11:01:20.348Z,1001.21
2022-11-13T11:02:20.295Z,1001.18
2022-11-13T11:03:20.279Z,1001.19
2022-11-13T11:04:20.337Z,1001.20
2022-11-13T11:05:20.220Z,1001.23
2022-11-13T11:06:20.213Z,1001.17
2022-11-13T11:07:21.545Z,1001.16
2022-11-13T11:08:20.160Z,1001.20
2022-11-13T11:09:20.141Z,1001.21
2022-11-13T11:10:20.121Z,1001.19
2022-11-13T11:11:20.132Z,1001.13
2022-11-13T11:12:22.094Z,1001.17
2022-11-13T11:13:20.063Z,1001.12
2022-11-13T11:14:20.040Z,1001.11
2022-11-13T11:15:20.015Z,1001.10
2022-11-13T11:16:19.992Z,1001.08
2022-11-13T11:17:19.984Z,1001.06
2022-11-13T11:18:19.965Z,1001.01
2022-11-13T11:19:19.942Z,1000.98
2022-11-13T11:20:20.005Z,1001.03
2022-11-13T11:21:19.904Z,1000.99
2022-11-13T11:22:19.874Z,1000.94
2022-11-13T11:23:19.859Z,1000.92
2022-11-13T11:24:19.833Z,1000.94
2022-11-13T11:25:19.806Z,1000.92
2022-11-13T11:26:19.797Z,1000.91
2022-11-13T11:27:19.776Z,1000.91
2022-11-13T11:28:19.748Z,1000.86
2022-11-13T11:29:19.728Z,1000.86
2022-11-13T11:30:19.710Z,1000.80
2022-11-13T11:31:19.676Z,1000.76
2022-11-13T11:32:19.675Z,1000.80
2022-11-13T11:33:19.650Z,1000.78
2022-11-13T11:34:19.617Z,1000.72
2022-11-13T11:35:19.615Z,1000.78
2022-11-13T11:36:19.675Z,1000.78
2022-11-13T11:37:19.571Z,1000.78
2022-11-13T11:38:19.543Z,1000.77
2022-11-13T11:39:19.523Z,1000.77
2022-11-13T11:40:19.509Z,1000.71
2022-11-13T11:41:19.483Z,1000.66
2022-11-13T11:42:19.461Z,1000.67
2022-11-13T11:43:19.441Z,1000.64
2022-11-13T11:44:19.430Z,1000.63
2022-11-13T11:45:19.443Z,1000.61
2022-11-13T11:46:19.394Z,1000.65
2022-11-13T11:47:19.388Z,1000.61
2022-11-13T11:48:19.353Z,1000.62
2022-11-13T11:49:19.329Z,1000.62
2022-11-13T11:50:19.306Z,1000.62
2022-11-13T11:51:19.296Z,1000.52
2022-11-13T11:52:19.365Z,1000.50
2022-11-13T11:53:19.273Z,1000.48
2022-11-13T11:54:19.234Z,1000.45
2022-11-13T11:55:19.265Z,1000.44
2022-11-13T11:56:19.213Z,1000.42
2022-11-13T11:57:19.215Z,1000.43
2022-11-13T11:58:19.172Z,1000.43
2022-11-13T11:59:19.148Z,1000.36
2022-11-13T12:00:19.139Z,1000.39
2022-11-13T12:01:19.119Z,1000.38
2022-11-13T12:02:19.142Z,1000.34
2022-11-13T12:03:19.086Z,1000.35
2022-11-13T12:04:19.092Z,1000.32
2022-11-13T12:05:20.350Z,1000.35
2022-11-13T12:06:19.039Z,1000.35
2022-11-13T12:07:19.056Z,1000.31